Time;durP1;ratioP1;P1;durP2;ratioP2;P2;SDS_P1;SDS_P2;PMS_P1;PMS_P2;Temp;Humidity;BMP_temperature;BMP_pressure;BME280_temperature;BME280_humidity;BME280_pressure;Samples;Min_cycle;Max_cycle;Signal;HPM_P1;HPM_P2
2021/08/26 00:07:44;;;;;;;;;18.00;15.50;;;;;21.13;100.00;101655.03;5081196;27;45525;-74
2021/08/26 00:10:13;;;;;;;;;21.25;18.25;;;;;21.11;100.00;101652.44;5077728;27;46406;-73
2021/08/26 00:12:39;;;;;;;;;18.25;15.75;;;;;21.05;100.00;101647.41;5094907;27;45807;-72
2021/08/26 00:15:08;;;;;;;;;16.00;15.25;;;;;21.08;100.00;101665.84;5098121;27;45298;-74
2021/08/26 00:17:34;;;;;;;;;17.50;15.75;;;;;21.04;100.00;101666.88;5084705;27;45466;-75
2021/08/26 00:19:59;;;;;;;;;17.50;15.75;;;;;21.00;100.00;101668.81;5091420;27;45965;-74
2021/08/26 00:22:25;;;;;;;;;18.50;17.00;;;;;20.90;100.00;101651.56;5078717;27;45380;-75
2021/08/26 00:24:50;;;;;;;;;16.25;15.75;;;;;20.94;100.00;101661.13;5078584;27;45424;-75
2021/08/26 00:27:15;;;;;;;;;15.25;14.75;;;;;20.85;100.00;101650.91;5078902;27;45237;-74
2021/08/26 00:29:41;;;;;;;;;17.75;16.00;;;;;20.88;100.00;101664.03;5095738;27;46768;-75
2021/08/26 00:32:07;;;;;;;;;15.00;14.00;;;;;20.70;100.00;101646.22;5089209;27;45252;-75
2021/08/26 00:34:35;;;;;;;;;16.25;15.50;;;;;20.83;100.00;101657.22;5079805;27;45249;-74
2021/08/26 00:37:00;;;;;;;;;11.50;10.00;;;;;20.74;100.00;101656.66;5091638;27;45349;-75
2021/08/26 00:39:26;;;;;;;;;15.00;14.00;;;;;20.75;100.00;101657.50;5078455;27;45477;-74
2021/08/26 00:41:51;;;;;;;;;13.25;12.50;;;;;20.69;100.00;101652.47;5098182;27;45392;-74
2021/08/26 00:44:22;;;;;;;;;14.25;11.50;;;;;20.71;100.00;101663.88;5087225;27;45866;-75
2021/08/26 00:46:48;;;;;;;;;11.75;11.00;;;;;20.63;100.00;101658.03;5092948;27;45280;-74
2021/08/26 00:49:15;;;;;;;;;10.75;10.50;;;;;20.59;100.00;101657.28;5078179;27;45606;-75
2021/08/26 00:51:41;;;;;;;;;10.50;10.00;;;;;20.55;100.00;101657.47;5086284;27;45907;-75
2021/08/26 00:54:07;;;;;;;;;12.50;9.75;;;;;20.51;100.00;101645.25;5078054;27;45348;-74
2021/08/26 00:56:33;;;;;;;;;10.50;10.50;;;;;20.47;100.00;101656.00;5089255;27;45391;-74
2021/08/26 00:59:01;;;;;;;;;10.25;10.25;;;;;20.27;100.00;101624.09;5081556;27;46661;-75
2021/08/26 01:01:34;;;;;;;;;9.50;8.75;;;;;20.43;100.00;101657.06;5077988;27;45513;-72
2021/08/26 01:04:00;;;;;;;;;9.25;9.00;;;;;20.42;100.00;101657.13;5077898;27;45362;-75
2021/08/26 01:06:34;;;;;;;;;11.00;9.75;;;;;20.38;100.00;101651.06;5078385;27;45327;-74
2021/08/26 01:09:07;;;;;;;;;9.00;8.00;;;;;20.38;100.00;101651.06;5077712;27;45512;-75
2021/08/26 01:11:35;;;;;;;;;9.25;8.75;;;;;20.30;100.00;101637.22;5077771;27;45369;-75
2021/08/26 01:14:03;;;;;;;;;9.75;8.25;;;;;20.32;100.00;101650.41;5077754;27;45305;-74
2021/08/26 01:16:28;;;;;;;;;9.75;8.50;;;;;20.23;100.00;101632.22;5084764;27;45278;-75
2021/08/26 01:18:54;;;;;;;;;10.25;9.25;;;;;20.23;100.00;101641.03;5098239;27;46239;-75
2021/08/26 01:21:21;;;;;;;;;8.00;8.00;;;;;20.17;100.00;101636.88;5078982;27;45513;-75
2021/08/26 01:23:51;;;;;;;;;8.25;8.00;;;;;20.20;100.00;101643.81;5077934;27;45347;-74
2021/08/26 01:26:24;;;;;;;;;7.50;7.00;;;;;20.19;100.00;101650.06;5096971;27;45273;-74
2021/08/26 01:28:53;;;;;;;;;9.00;8.00;;;;;20.13;100.00;101637.88;5087158;27;45692;-74
2021/08/26 01:31:20;;;;;;;;;10.00;8.00;;;;;20.13;100.00;101634.38;5077376;27;45407;-75
2021/08/26 01:33:49;;;;;;;;;7.00;7.00;;;;;20.10;100.00;101637.16;5086949;27;45332;-73
2021/08/26 01:36:15;;;;;;;;;8.75;8.00;;;;;20.09;100.00;101638.94;5091564;27;45425;-74
2021/08/26 01:38:40;;;;;;;;;8.50;8.50;;;;;20.02;100.00;101633.94;5088650;27;46438;-73
2021/08/26 01:41:06;;;;;;;;;6.75;6.25;;;;;19.97;100.00;101622.66;5094100;27;45452;-74
2021/08/26 01:43:34;;;;;;;;;10.25;9.25;;;;;20.01;100.00;101635.72;5079696;27;45228;-74
2021/08/26 01:45:59;;;;;;;;;12.00;9.00;;;;;20.01;100.00;101637.50;5078904;27;45481;-74
2021/08/26 01:48:25;;;;;;;;;12.25;10.50;;;;;19.99;100.00;101632.28;5088953;27;46343;-75
2021/08/26 01:50:50;;;;;;;;;10.00;10.00;;;;;19.97;100.00;101627.97;5091648;27;45407;-74
2021/08/26 01:53:17;;;;;;;;;9.25;9.00;;;;;19.92;100.00;101625.50;5093442;27;45379;-74
2021/08/26 01:55:45;;;;;;;;;9.75;8.50;;;;;19.96;100.00;101620.94;5090285;27;45584;-74
2021/08/26 01:58:15;;;;;;;;;11.00;10.00;;;;;19.96;100.00;101628.88;5092477;27;46418;-72
2021/08/26 02:00:41;;;;;;;;;11.00;10.25;;;;;19.98;100.00;101629.69;5077191;27;45569;-74
2021/08/26 02:03:06;;;;;;;;;14.00;11.25;;;;;19.97;100.00;101622.66;5094989;27;45441;-75
2021/08/26 02:05:32;;;;;;;;;14.00;12.75;;;;;20.01;100.00;101622.47;5088093;27;45335;-74
2021/08/26 02:07:57;;;;;;;;;11.25;10.75;;;;;20.06;100.00;101631.09;5091284;27;45419;-74
2021/08/26 02:10:22;;;;;;;;;13.00;11.75;;;;;20.06;100.00;101631.09;5076820;27;45382;-74
2021/08/26 02:12:49;;;;;;;;;13.50;11.25;;;;;20.11;100.00;101633.56;5077204;27;45300;-74
2021/08/26 02:15:15;;;;;;;;;12.00;11.00;;;;;20.09;100.00;101625.69;5075648;27;45498;-75
2021/08/26 02:17:41;;;;;;;;;10.00;8.75;;;;;20.14;100.00;101625.50;5076717;27;45644;-75
2021/08/26 02:20:07;;;;;;;;;11.25;9.25;;;;;20.07;100.00;101616.06;5075429;27;46122;-75
2021/08/26 02:22:33;;;;;;;;;12.00;10.75;;;;;20.13;100.00;101623.75;5076783;27;45407;-74
2021/08/26 02:24:58;;;;;;;;;10.50;8.75;;;;;20.10;100.00;101619.44;5091362;27;45464;-75
2021/08/26 02:27:24;;;;;;;;;10.50;9.75;;;;;20.05;100.00;101620.56;5083823;27;46500;-75
2021/08/26 02:29:49;;;;;;;;;10.75;9.50;;;;;20.00;100.00;101612.78;5083689;27;45431;-75
2021/08/26 02:32:14;;;;;;;;;9.75;8.50;;;;;19.97;100.00;101617.34;5091490;27;46457;-75
2021/08/26 02:34:40;;;;;;;;;11.25;9.75;;;;;19.91;100.00;101606.97;5091836;27;45398;-74
2021/08/26 02:37:07;;;;;;;;;7.75;7.25;;;;;19.88;100.00;101616.78;5086205;27;45382;-75
2021/08/26 02:39:36;;;;;;;;;8.50;6.00;;;;;19.86;100.00;101629.22;5100570;27;45382;-76
2021/08/26 02:42:03;;;;;;;;;6.50;6.00;;;;;19.80;100.00;101624.16;5085139;27;45390;-75
2021/08/26 02:44:28;;;;;;;;;5.75;4.75;;;;;19.74;100.00;101627.06;5080250;27;45252;-76
2021/08/26 02:46:55;;;;;;;;;3.50;3.25;;;;;19.70;100.00;101621.94;5099169;27;47437;-75
2021/08/26 02:49:20;;;;;;;;;6.25;5.00;;;;;19.64;100.00;101622.16;5085980;27;45327;-75
2021/08/26 02:51:46;;;;;;;;;5.25;4.75;;;;;19.56;100.00;101612.72;5100718;27;45715;-75
2021/08/26 02:54:11;;;;;;;;;5.50;5.50;;;;;19.58;100.00;101615.31;5086254;27;45331;-75
2021/08/26 02:56:36;;;;;;;;;4.00;4.00;;;;;19.56;100.00;101614.50;5090467;27;48747;-75
2021/08/26 02:59:02;;;;;;;;;5.25;4.00;;;;;19.51;100.00;101613.78;5079757;27;45393;-75
2021/08/26 03:01:27;;;;;;;;;5.00;5.00;;;;;19.52;100.00;101620.81;5086503;27;45400;-76
2021/08/26 03:03:53;;;;;;;;;5.00;5.00;;;;;19.51;100.00;101616.44;5100656;27;45303;-75
2021/08/26 03:06:18;;;;;;;;;4.50;4.00;;;;;19.50;100.00;101620.88;5085649;27;46223;-75
2021/08/26 03:08:43;;;;;;;;;3.75;3.00;;;;;19.51;100.00;101619.09;5100399;27;45400;-75
2021/08/26 03:11:10;;;;;;;;;3.25;3.00;;;;;19.48;100.00;101616.56;5083887;27;46452;-75
2021/08/26 03:13:36;;;;;;;;;4.00;3.75;;;;;19.44;100.00;101599.88;5088420;27;45319;-76
2021/08/26 03:16:03;;;;;;;;;3.00;2.00;;;;;19.42;100.00;101601.72;5085270;27;46574;-75
2021/08/26 03:18:28;;;;;;;;;2.50;2.50;;;;;19.42;100.00;101608.81;5079721;27;45197;-75
2021/08/26 03:20:53;;;;;;;;;5.00;4.25;;;;;19.38;100.00;101601.91;5079842;27;45193;-75
2021/08/26 03:23:19;;;;;;;;;3.75;3.25;;;;;19.33;100.00;101598.56;5094154;27;45344;-76
2021/08/26 03:25:45;;;;;;;;;3.75;2.75;;;;;19.27;100.00;101597.88;5089749;27;45499;-76
2021/08/26 03:28:10;;;;;;;;;3.25;3.00;;;;;19.14;100.00;101569.25;5083193;27;45406;-75
2021/08/26 03:30:36;;;;;;;;;4.50;3.25;;;;;19.18;100.00;101595.56;5087820;27;45446;-74
2021/08/26 03:33:02;;;;;;;;;5.50;3.75;;;;;19.15;100.00;101593.03;5085267;27;45288;-74
2021/08/26 03:35:28;;;;;;;;;4.25;4.00;;;;;19.15;100.00;101598.31;5079566;27;47626;-75
2021/08/26 03:37:53;;;;;;;;;5.25;4.00;;;;;19.08;100.00;101593.31;5091643;27;45446;-75
2021/08/26 03:40:18;;;;;;;;;5.00;4.00;;;;;19.07;100.00;101605.69;5095646;27;45376;-75
2021/08/26 03:42:44;;;;;;;;;3.50;3.50;;;;;19.01;100.00;101600.63;5089997;27;45170;-76
2021/08/26 03:45:10;;;;;;;;;3.00;3.00;;;;;19.01;100.00;101605.00;5081612;27;45423;-75
2021/08/26 03:47:35;;;;;;;;;5.00;4.25;;;;;18.97;100.00;101599.84;5097485;27;45351;-75
2021/08/26 03:50:01;;;;;;;;;3.75;3.00;;;;;18.89;100.00;101599.25;5099745;27;45338;-75
2021/08/26 03:52:26;;;;;;;;;3.25;3.25;;;;;18.88;100.00;101608.09;5085541;27;45305;-75
2021/08/26 03:54:51;;;;;;;;;4.00;4.00;;;;;18.80;100.00;101598.72;5115094;27;45739;-72
2021/08/26 03:57:17;;;;;;;;;4.00;2.25;;;;;18.81;100.00;101611.03;5085389;27;45357;-75
2021/08/26 03:59:42;;;;;;;;;3.25;2.50;;;;;18.74;100.00;101607.72;5099538;27;45232;-75
2021/08/26 04:02:07;;;;;;;;;2.50;2.50;;;;;18.71;100.00;101618.41;5103266;27;45527;-75
2021/08/26 04:04:33;;;;;;;;;2.75;2.75;;;;;18.66;100.00;101612.41;5093143;27;45395;-75
2021/08/26 04:06:58;;;;;;;;;5.00;3.00;;;;;18.63;100.00;101613.38;5078860;27;45441;-75
2021/08/26 04:09:24;;;;;;;;;3.75;3.75;;;;;18.70;100.00;101621.09;5094954;27;45465;-75
2021/08/26 04:11:49;;;;;;;;;3.50;3.25;;;;;18.74;100.00;101620.94;5099551;27;45360;-75
2021/08/26 04:14:14;;;;;;;;;4.00;3.00;;;;;18.72;100.00;101608.69;5085457;27;45324;-76
2021/08/26 04:16:40;;;;;;;;;4.50;4.00;;;;;18.82;100.00;101623.34;5084247;27;45341;-74
2021/08/26 04:19:05;;;;;;;;;4.00;4.00;;;;;18.79;100.00;101623.44;5087364;27;45338;-75
2021/08/26 04:21:32;;;;;;;;;3.50;3.00;;;;;18.80;100.00;101625.19;5082105;27;45523;-75
2021/08/26 04:23:57;;;;;;;;;3.25;3.00;;;;;18.78;100.00;101624.34;5098754;27;46819;-74
2021/08/26 04:26:22;;;;;;;;;3.25;3.00;;;;;18.76;100.00;101623.53;5097587;27;45589;-74
2021/08/26 04:28:48;;;;;;;;;4.50;3.50;;;;;18.71;100.00;101625.47;5086214;27;45240;-71
2021/08/26 04:31:13;;;;;;;;;3.00;3.00;;;;;18.66;100.00;101612.41;5085579;27;45246;-72
2021/08/26 04:33:41;;;;;;;;;3.00;3.00;;;;;18.70;100.00;101618.44;5092643;27;45443;-74
2021/08/26 04:36:06;;;;;;;;;4.00;4.00;;;;;18.65;100.00;101608.91;5077045;27;45379;-74
2021/08/26 04:38:32;;;;;;;;;4.00;3.50;;;;;18.66;100.00;101615.06;5108620;27;45276;-76
2021/08/26 04:40:58;;;;;;;;;3.75;3.00;;;;;18.55;100.00;101601.28;5088487;27;45440;-75
2021/08/26 04:43:23;;;;;;;;;4.00;3.00;;;;;18.62;100.00;101609.00;5083959;27;46473;-75
2021/08/26 04:45:48;;;;;;;;;3.00;3.00;;;;;18.61;100.00;101609.03;5080704;27;45218;-75
2021/08/26 04:48:14;;;;;;;;;5.00;3.75;;;;;18.66;100.00;101609.75;5078343;27;45233;-75
2021/08/26 04:50:39;;;;;;;;;3.25;3.00;;;;;18.68;100.00;101605.28;5078100;27;45518;-76
2021/08/26 04:53:04;;;;;;;;;2.50;2.50;;;;;18.69;100.00;101591.13;5078140;27;46109;-75
2021/08/26 04:55:30;;;;;;;;;3.00;3.00;;;;;18.77;100.00;101604.09;5091002;27;45415;-74
2021/08/26 04:57:55;;;;;;;;;3.75;3.75;;;;;18.79;100.00;101607.56;5078774;27;45486;-75
2021/08/26 05:00:21;;;;;;;;;3.00;3.00;;;;;18.77;100.00;101601.44;5078369;27;45413;-75
2021/08/26 05:02:46;;;;;;;;;4.00;3.00;;;;;18.83;100.00;101604.75;5092189;27;46389;-74
2021/08/26 05:05:11;;;;;;;;;3.50;3.00;;;;;18.83;100.00;101607.41;5077845;27;45438;-74
2021/08/26 05:07:37;;;;;;;;;3.00;3.00;;;;;18.81;100.00;101603.09;5077952;27;45679;-74
2021/08/26 05:10:03;;;;;;;;;3.50;3.50;;;;;18.84;100.00;101613.56;5078132;27;45481;-74
2021/08/26 05:12:30;;;;;;;;;6.25;4.75;;;;;18.85;100.00;101612.66;5077687;27;46531;-73
2021/08/26 05:14:56;;;;;;;;;3.50;3.25;;;;;18.83;100.00;101611.84;5077568;27;45665;-74
2021/08/26 05:17:21;;;;;;;;;3.00;3.00;;;;;18.80;100.00;101611.94;5084634;27;45300;-75
2021/08/26 05:19:47;;;;;;;;;3.00;3.00;;;;;18.79;100.00;101612.88;5081049;27;45475;-74
2021/08/26 05:22:12;;;;;;;;;3.50;3.25;;;;;18.73;100.00;101616.56;5097967;27;45554;-75
2021/08/26 05:24:37;;;;;;;;;4.25;3.75;;;;;18.68;100.00;101610.56;5096497;27;45349;-74
2021/08/26 05:27:03;;;;;;;;;2.50;2.00;;;;;18.62;100.00;101609.00;5098128;27;45785;-75
2021/08/26 05:29:28;;;;;;;;;3.00;3.00;;;;;18.62;100.00;101606.38;5084832;27;45373;-74
2021/08/26 05:31:54;;;;;;;;;9.75;9.50;;;;;18.61;100.00;101607.25;5091487;27;45733;-74
2021/08/26 05:34:21;;;;;;;;;3.00;3.00;;;;;18.66;100.00;101615.06;5077316;27;45601;-74
2021/08/26 05:36:46;;;;;;;;;5.00;3.00;;;;;18.68;100.00;101615.84;5090279;27;45384;-72
2021/08/26 05:39:11;;;;;;;;;3.25;2.50;;;;;18.69;100.00;101625.53;5086807;27;45496;-74
2021/08/26 05:41:37;;;;;;;;;4.00;3.00;;;;;18.71;100.00;101622.81;5082346;27;46364;-73
2021/08/26 05:44:02;;;;;;;;;5.25;3.25;;;;;18.67;100.00;101609.72;5083922;27;45404;-74
2021/08/26 05:46:28;;;;;;;;;3.50;3.00;;;;;18.76;100.00;101616.44;5088600;27;45390;-74
2021/08/26 05:48:53;;;;;;;;;3.50;3.00;;;;;18.71;100.00;101605.16;5076923;27;45338;-74
2021/08/26 05:51:18;;;;;;;;;3.00;3.00;;;;;18.79;100.00;101620.81;5090758;27;46335;-74
2021/08/26 05:53:44;;;;;;;;;4.00;3.75;;;;;18.80;100.00;101618.09;5077193;27;45328;-74
2021/08/26 05:56:09;;;;;;;;;3.75;3.00;;;;;18.80;100.00;101611.94;5077252;27;45494;-75
2021/08/26 05:58:35;;;;;;;;;3.50;3.50;;;;;18.81;100.00;101609.25;5077332;27;45362;-75
2021/08/26 06:01:03;;;;;;;;;4.00;4.00;;;;;18.79;100.00;101608.44;5090783;27;45623;-74
2021/08/26 06:03:28;;;;;;;;;3.00;2.50;;;;;18.84;100.00;101606.50;5076923;27;45296;-74
2021/08/26 06:05:54;;;;;;;;;2.50;2.50;;;;;18.89;100.00;101616.91;5076728;27;45418;-73
2021/08/26 06:08:19;;;;;;;;;2.00;2.00;;;;;18.91;100.00;101613.28;5081661;27;45824;-74
2021/08/26 06:10:44;;;;;;;;;3.00;3.00;;;;;18.85;100.00;101602.06;5097169;27;46183;-74
2021/08/26 06:13:10;;;;;;;;;2.00;2.00;;;;;18.98;100.00;101624.50;5096908;27;45463;-73
2021/08/26 06:15:35;;;;;;;;;3.00;2.50;;;;;19.02;100.00;101615.56;5086665;27;45404;-73
2021/08/26 06:18:01;;;;;;;;;3.00;2.00;;;;;19.11;100.00;101612.59;5079736;27;45464;-74
2021/08/26 06:20:26;;;;;;;;;2.00;2.00;;;;;19.16;100.00;101617.72;5088572;27;45260;-74
2021/08/26 06:22:52;;;;;;;;;2.00;2.00;;;;;19.25;100.00;101612.97;5075691;27;45761;-74
2021/08/26 06:25:17;;;;;;;;;3.00;3.00;;;;;19.33;100.00;101615.31;5089477;27;45437;-72
2021/08/26 06:27:43;;;;;;;;;4.00;4.00;;;;;19.39;100.00;101627.47;5089815;27;45457;-74
2021/08/26 06:30:10;;;;;;;;;8.50;8.50;;;;;19.35;100.00;101607.31;5076545;27;46459;-75
2021/08/26 06:32:36;;;;;;;;;4.75;3.50;;;;;19.40;100.00;101618.59;5076845;27;45565;-73
2021/08/26 06:35:03;;;;;;;;;4.75;3.75;;;;;19.40;100.00;101616.81;5075456;27;45309;-73
2021/08/26 06:37:29;;;;;;;;;3.25;3.00;;;;;19.43;100.00;101618.50;5086064;27;45309;-74
2021/08/26 06:39:57;;;;;;;;;3.25;2.75;;;;;19.46;100.00;101613.97;5096791;27;46261;-73
2021/08/26 06:42:23;;;;;;;;;3.00;3.00;;;;;19.53;100.00;101607.53;5097025;27;45442;-74
2021/08/26 06:44:51;;;;;;;;;4.50;4.00;;;;;19.61;100.00;101612.53;5092920;27;45335;-75
2021/08/26 06:47:16;;;;;;;;;4.00;4.00;;;;;19.68;100.00;101611.38;5081396;27;45479;-75
2021/08/26 06:49:42;;;;;;;;;4.75;4.00;;;;;19.78;100.00;101623.38;5076580;27;45591;-75
2021/08/26 06:52:07;;;;;;;;;4.50;3.75;;;;;19.75;100.00;101609.38;5076406;27;45355;-73
2021/08/26 06:54:33;;;;;;;;;3.00;3.00;;;;;19.80;100.00;101615.34;5076179;27;45221;-74
2021/08/26 06:56:58;;;;;;;;;4.00;4.00;;;;;19.87;100.00;101611.53;5086812;27;45305;-74
2021/08/26 06:59:24;;;;;;;;;4.75;4.75;;;;;19.93;100.00;101606.03;5096565;27;47236;-73
2021/08/26 07:01:49;;;;;;;;;4.75;3.75;;;;;20.14;100.00;101620.19;5085939;27;45319;-74
2021/08/26 07:04:14;;;;;;;;;6.00;4.75;;;;;20.21;100.00;101610.22;5077354;27;45414;-75
2021/08/26 07:06:40;;;;;;;;;3.75;3.75;;;;;20.10;100.00;101592.06;5089701;27;45331;-75
2021/08/26 07:09:05;;;;;;;;;4.50;4.25;;;;;20.27;100.00;101605.53;5089282;27;46314;-74
2021/08/26 07:11:30;;;;;;;;;6.00;5.25;;;;;20.43;100.00;101614.63;5091255;27;45369;-76
2021/08/26 07:13:56;;;;;;;;;4.25;4.00;;;;;20.55;100.00;101617.66;5076503;27;45272;-74
2021/08/26 07:16:21;;;;;;;;;4.50;4.25;;;;;20.64;100.00;101607.56;5090509;27;45434;-75
2021/08/26 07:18:47;;;;;;;;;7.75;6.00;;;;;20.69;100.00;101607.34;5077283;28;45470;-75
2021/08/26 07:21:12;;;;;;;;;5.00;4.50;;;;;20.74;100.00;101602.69;5093991;27;45353;-75
2021/08/26 07:23:38;;;;;;;;;5.75;5.00;;;;;20.76;100.00;101607.00;5079745;27;45624;-75
2021/08/26 07:26:03;;;;;;;;;6.50;5.25;;;;;20.84;100.00;101609.34;5095317;27;45571;-75
2021/08/26 07:28:29;;;;;;;;;7.25;6.50;;;;;20.88;100.00;101610.94;5079193;27;45526;-74
2021/08/26 07:30:54;;;;;;;;;7.75;5.00;;;;;20.92;100.00;101606.38;5088975;27;45349;-74
2021/08/26 07:33:20;;;;;;;;;7.75;6.75;;;;;20.99;100.00;101605.16;5082782;27;45436;-75
2021/08/26 07:35:45;;;;;;;;;6.00;5.00;;;;;20.96;100.00;101600.84;5079656;27;45380;-75
2021/08/26 07:38:10;;;;;;;;;5.75;5.00;;;;;20.99;100.00;101600.72;5077838;27;47207;-74
2021/08/26 07:40:36;;;;;;;;;6.50;6.00;;;;;20.98;100.00;101598.97;5077814;27;45443;-74
2021/08/26 07:43:01;;;;;;;;;5.75;5.00;;;;;21.08;100.00;101610.94;5091925;27;45453;-75
2021/08/26 07:45:27;;;;;;;;;7.75;7.00;;;;;21.07;100.00;101601.25;5079270;27;45611;-74
2021/08/26 07:47:52;;;;;;;;;6.25;5.25;;;;;21.06;100.00;101602.19;5077134;27;47006;-70
2021/08/26 07:50:20;;;;;;;;;8.00;5.75;;;;;21.17;100.00;101608.81;5079181;27;45392;-74
2021/08/26 07:52:45;;;;;;;;;7.00;6.25;;;;;21.18;100.00;101615.84;5098176;27;45509;-67
2021/08/26 07:55:11;;;;;;;;;10.50;8.00;;;;;21.14;100.00;101609.81;5088844;27;45327;-66
2021/08/26 07:57:39;;;;;;;;;8.00;7.75;;;;;21.06;100.00;101599.53;5081092;27;46225;-72
2021/08/26 08:00:05;;;;;;;;;11.50;9.25;;;;;21.09;100.00;101606.50;5090185;27;45505;-71
2021/08/26 08:02:31;;;;;;;;;9.00;6.25;;;;;21.09;100.00;101617.13;5093170;27;45260;-71
2021/08/26 08:05:01;;;;;;;;;9.50;8.00;;;;;21.10;100.00;101613.53;5086444;27;45356;-70
2021/08/26 08:07:27;;;;;;;;;8.00;7.50;;;;;21.05;100.00;101612.88;5085355;27;46219;-70
2021/08/26 08:09:52;;;;;;;;;8.00;8.00;;;;;21.08;100.00;101613.59;5097332;27;45775;-70
2021/08/26 08:12:18;;;;;;;;;7.00;6.75;;;;;21.02;100.00;101603.22;5087510;27;45433;-69
2021/08/26 08:14:44;;;;;;;;;7.75;6.00;;;;;21.08;100.00;101604.78;5082418;27;45378;-70
2021/08/26 08:17:10;;;;;;;;;6.75;6.00;;;;;21.21;100.00;101610.38;5098891;27;46315;-70
2021/08/26 08:19:36;;;;;;;;;8.00;5.75;;;;;21.26;100.00;101605.75;5083119;27;45656;-72
2021/08/26 08:22:02;;;;;;;;;7.00;6.25;;;;;21.26;100.00;101605.75;5078558;27;45492;-71
2021/08/26 08:24:28;;;;;;;;;8.00;7.00;;;;;21.31;100.00;101611.75;5092486;27;45347;-71
2021/08/26 08:26:54;;;;;;;;;8.00;5.75;;;;;21.36;100.00;101601.78;5078391;27;46309;-71
2021/08/26 08:29:19;;;;;;;;;6.00;5.00;;;;;21.46;100.00;101599.53;5078550;27;45436;-71
2021/08/26 08:31:45;;;;;;;;;5.50;4.75;;;;;21.47;100.00;101599.47;5077450;27;45326;-71
2021/08/26 08:34:10;;;;;;;;;4.00;4.00;;;;;21.44;100.00;101575.69;5094348;27;45535;-73
2021/08/26 08:36:37;;;;;;;;;5.25;2.50;;;;;21.66;100.00;101603.00;5076658;27;47467;-72
2021/08/26 08:39:04;;;;;;;;;3.00;3.00;;;;;21.73;100.00;101598.28;5078092;27;45580;-71
2021/08/26 08:41:31;;;;;;;;;5.00;3.75;;;;;21.88;100.00;101596.69;5092221;27;45327;-73
2021/08/26 08:43:58;;;;;;;;;5.00;3.25;;;;;22.01;100.00;101596.03;5083099;27;45275;-72
2021/08/26 08:46:24;;;;;;;;;5.25;3.75;;;;;22.06;100.00;101592.31;5098545;27;45411;-71
2021/08/26 08:48:51;;;;;;;;;4.25;4.25;;;;;22.09;100.00;101592.16;5098257;27;45281;-71
2021/08/26 08:51:17;;;;;;;;;4.00;4.00;;;;;22.13;100.00;101594.59;5084846;27;45332;-72
2021/08/26 08:53:43;;;;;;;;;4.50;4.00;;;;;22.18;100.00;101600.56;5086044;27;45331;-70
2021/08/26 08:56:11;;;;;;;;;4.00;4.00;;;;;22.34;100.00;101599.78;5080568;27;47573;-70
2021/08/26 08:58:39;;;;;;;;;4.75;3.75;;;;;22.56;100.00;101603.09;5087155;27;45268;-71
2021/08/26 09:01:05;;;;;;;;;5.00;4.00;;;;;22.64;100.00;101582.31;5092232;27;45386;-72
2021/08/26 09:03:31;;;;;;;;;3.00;3.00;;;;;22.78;100.00;101595.75;5078185;27;45319;-71
2021/08/26 09:06:00;;;;;;;;;3.75;3.25;;;;;22.81;100.00;101595.63;5077245;27;46468;-69
2021/08/26 09:08:28;;;;;;;;;4.00;3.00;;;;;22.85;100.00;101591.84;5085521;27;45386;-70
2021/08/26 09:11:15;;;;;;;;;4.75;2.00;;;;;22.82;100.00;101577.84;5098162;27;45190;-69
2021/08/26 09:13:42;;;;;;;;;3.00;2.00;;;;;23.00;100.00;101589.34;5086865;27;45389;-70
2021/08/26 09:16:09;;;;;;;;;3.75;2.50;;;;;23.09;100.00;101586.22;5098954;27;47044;-70
2021/08/26 09:18:35;;;;;;;;;3.75;3.00;;;;;23.25;100.00;101597.75;5090717;27;45469;-70
2021/08/26 09:21:05;;;;;;;;;4.00;2.00;;;;;23.35;100.00;101604.31;5077732;27;45242;-70
2021/08/26 09:23:33;;;;;;;;;2.00;2.00;;;;;23.43;100.00;101591.44;5076266;27;45582;-71
2021/08/26 09:26:17;;;;;;;;;2.00;2.00;;;;;23.58;100.00;101595.09;5089902;27;45424;-71
2021/08/26 09:28:43;;;;;;;;;4.00;2.75;;;;;23.61;100.00;101586.06;5077294;27;45319;-70
2021/08/26 09:31:12;;;;;;;;;2.00;2.00;;;;;23.73;100.00;101591.56;5077684;27;45364;-72
2021/08/26 09:33:58;;;;;;;;;1.50;1.50;;;;;23.85;100.00;101597.19;5082922;27;45257;-72
2021/08/26 09:36:51;;;;;;;;;4.25;2.25;;;;;23.81;100.00;101596.50;5113705;27;47400;-70
2021/08/26 09:39:20;;;;;;;;;2.25;2.25;;;;;23.78;100.00;101589.53;5054866;28;45387;-70
2021/08/26 09:42:03;;;;;;;;;1.50;1.50;;;;;23.83;100.00;101578.59;5054805;28;45517;-71
2021/08/26 09:44:30;;;;;;;;;2.75;2.75;;;;;24.16;100.00;101582.94;5054586;28;45307;-70
2021/08/26 09:46:59;;;;;;;;;2.50;2.50;;;;;24.44;100.00;101591.09;5054677;28;46303;-71
2021/08/26 09:49:28;;;;;;;;;4.00;2.00;;;;;24.54;100.00;101583.44;5054352;28;45531;-71
2021/08/26 09:52:13;;;;;;;;;2.00;1.75;;;;;24.49;100.00;101581.03;5054944;28;45447;-69
2021/08/26 09:54:43;;;;;;;;;1.25;1.25;;;;;24.34;100.00;101574.78;5054946;28;45341;-71
2021/08/26 09:57:29;;;;;;;;;1.25;1.25;;;;;24.37;100.00;101589.75;5054528;28;45483;-72
2021/08/26 09:59:58;;;;;;;;;1.75;1.00;;;;;24.37;100.00;101587.94;5054721;28;45403;-71
2021/08/26 10:02:25;;;;;;;;;2.00;2.00;;;;;24.45;100.00;101592.84;5040752;28;45313;-70
2021/08/26 10:04:52;;;;;;;;;1.75;1.75;;;;;24.66;100.00;101596.03;5048526;28;45487;-71
2021/08/26 10:07:17;;;;;;;;;1.50;1.50;;;;;24.95;100.00;101592.50;5046412;28;45410;-71
2021/08/26 10:09:44;;;;;;;;;3.50;2.75;;;;;25.28;100.00;101584.22;5054113;28;45433;-70
2021/08/26 10:12:12;;;;;;;;;2.00;2.00;;;;;25.83;100.00;101577.25;5054448;28;45392;-71
2021/08/26 10:14:46;;;;;;;;;2.50;2.00;;;;;26.43;100.00;101572.34;5054638;28;45396;-68
2021/08/26 10:17:15;;;;;;;;;2.25;1.00;;;;;27.15;100.00;101576.28;5091950;27;45556;-71
2021/08/26 10:19:41;;;;;;;;;1.00;1.00;;;;;27.83;100.00;101566.94;5083018;27;45395;-69
2021/08/26 10:22:07;;;;;;;;;1.25;0.00;;;;;28.68;100.00;101563.19;5097235;27;45393;-68
2021/08/26 10:24:33;;;;;;;;;3.75;2.75;;;;;29.55;100.00;101558.16;5082617;27;45384;-68
2021/08/26 10:27:05;;;;;;;;;6.50;4.75;;;;;30.63;100.00;101551.81;5090829;27;45412;-68
2021/08/26 10:29:32;;;;;;;;;2.50;2.50;;;;;31.37;100.00;101555.19;5076637;27;45452;-69
2021/08/26 10:32:00;;;;;;;;;1.75;0.75;;;;;31.99;100.00;101562.19;5090807;27;45465;-69
2021/08/26 10:34:28;;;;;;;;;0.00;0.00;;;;;32.34;100.00;101557.25;5076827;27;45486;-69
2021/08/26 10:36:56;;;;;;;;;0.00;0.00;;;;;32.12;98.99;101553.78;5091039;27;45453;-68
2021/08/26 10:39:41;;;;;;;;;0.00;0.00;;;;;31.61;99.01;101551.28;5087139;27;45446;-70
2021/08/26 10:42:23;;;;;;;;;5.25;4.25;;;;;31.18;99.90;101560.50;5082535;27;45463;-69
2021/08/26 10:45:18;;;;;;;;;0.00;0.00;;;;;30.87;100.00;101562.31;5083823;27;45464;-69
2021/08/26 10:47:53;;;;;;;;;0.00;0.00;;;;;30.45;100.00;101559.59;5090653;27;46213;-68
2021/08/26 10:50:19;;;;;;;;;0.00;0.00;;;;;29.90;100.00;101568.75;5076757;27;45357;-69
2021/08/26 10:53:08;;;;;;;;;0.00;0.00;;;;;29.45;100.00;101576.91;5095602;27;45373;-70
2021/08/26 10:55:39;;;;;;;;;1.25;0.00;;;;;29.22;100.00;101573.31;5086888;27;45501;-69
2021/08/26 10:58:23;;;;;;;;;1.75;1.25;;;;;28.85;100.00;101582.53;5078398;27;47094;-68
2021/08/26 11:00:55;;;;;;;;;0.00;0.00;;;;;28.41;100.00;101575.19;5095746;27;45367;-68
2021/08/26 11:03:36;;;;;;;;;1.00;0.00;;;;;27.95;100.00;101584.84;5080078;27;45257;-69
2021/08/26 11:06:17;;;;;;;;;0.25;0.25;;;;;28.30;100.00;101590.31;5081793;27;45403;-69
2021/08/26 11:08:44;;;;;;;;;1.50;1.50;;;;;29.02;100.00;101587.50;5099817;27;45909;-69
2021/08/26 11:11:28;;;;;;;;;1.00;1.00;;;;;28.94;100.00;101588.06;5097917;27;45457;-68
2021/08/26 11:14:20;;;;;;;;;0.00;0.00;;;;;28.75;100.00;101592.31;5079629;27;45418;-68
2021/08/26 11:16:48;;;;;;;;;2.00;0.25;;;;;28.75;100.00;101586.91;5080038;27;45411;-67
2021/08/26 11:19:16;;;;;;;;;3.00;1.00;;;;;29.05;100.00;101586.38;5079316;27;45586;-68
2021/08/26 11:21:45;;;;;;;;;1.25;1.00;;;;;29.63;100.00;101577.22;5079433;27;45413;-68